createdAt,value
2022-11-14T00:01:24.245Z,96342.19
2022-11-14T00:03:52.045Z,96340.59
2022-11-14T00:06:19.809Z,96339.81
2022-11-14T00:08:48.676Z,96337.66
2022-11-14T00:11:16.213Z,96331.47
2022-11-14T00:13:43.755Z,96341.47
2022-11-14T00:16:11.306Z,96345.03
2022-11-14T00:18:38.813Z,96348.59
2022-11-14T00:21:06.462Z,96345.25
2022-11-14T00:23:34.011Z,96353.16
2022-11-14T00:26:02.878Z,96353.16
2022-11-14T00:28:30.745Z,96360.03
2022-11-14T00:30:58.433Z,96353.63
2022-11-14T00:33:26.019Z,96355.00
2022-11-14T00:35:54.849Z,96349.66
2022-11-14T00:38:23.057Z,96352.69
2022-11-14T00:40:50.806Z,96354.25
2022-11-14T00:43:19.906Z,96348.91
2022-11-14T00:45:48.549Z,96351.81
2022-11-14T00:48:16.541Z,96356.28
2022-11-14T00:50:44.679Z,96347.16
2022-11-14T00:53:12.343Z,96343.72
2022-11-14T00:55:40.164Z,96348.13
2022-11-14T00:58:07.704Z,96352.28
2022-11-14T01:00:37.030Z,96346.97
2022-11-14T01:03:05.033Z,96352.00
2022-11-14T01:05:32.559Z,96339.78
2022-11-14T01:08:00.123Z,96342.59
2022-11-14T01:10:27.731Z,96337.56
2022-11-14T01:12:55.296Z,96335.84
2022-11-14T01:15:22.848Z,96328.69
2022-11-14T01:17:51.721Z,96336.41
2022-11-14T01:20:19.436Z,96333.09
2022-11-14T01:22:46.958Z,96329.16
2022-11-14T01:25:14.522Z,96329.31
2022-11-14T01:27:42.052Z,96319.22
2022-11-14T01:30:10.171Z,96317.31
2022-11-14T01:32:37.743Z,96318.25
2022-11-14T01:35:07.109Z,96309.91
2022-11-14T01:37:34.635Z,96307.72
2022-11-14T01:40:02.155Z,96299.38
2022-11-14T01:42:29.678Z,96304.97
2022-11-14T01:44:57.193Z,96300.03
2022-11-14T01:47:29.975Z,96303.31
2022-11-14T01:50:00.532Z,96299.59
2022-11-14T01:52:34.364Z,96300.13
2022-11-14T01:55:04.066Z,96296.16
2022-11-14T01:57:36.386Z,96285.31
2022-11-14T02:00:15.902Z,96290.03
2022-11-14T02:02:44.807Z,96290.28
2022-11-14T02:05:15.550Z,96287.94
2022-11-14T02:07:44.416Z,96273.78
2022-11-14T02:10:18.223Z,96283.81
2022-11-14T02:12:47.163Z,96281.63
2022-11-14T02:15:15.725Z,96272.59
2022-11-14T02:17:44.914Z,96271.88
2022-11-14T02:20:20.182Z,96273.09
2022-11-14T02:22:47.722Z,96278.44
2022-11-14T02:25:18.942Z,96272.28
2022-11-14T02:27:46.494Z,96282.06
2022-11-14T02:30:17.851Z,96277.81
2022-11-14T02:33:09.615Z,96270.75
2022-11-14T02:35:34.528Z,96276.44
2022-11-14T02:38:02.058Z,96284.91
2022-11-14T02:40:29.589Z,96275.03
2022-11-14T02:42:57.110Z,96280.56
2022-11-14T02:45:25.002Z,96269.72
2022-11-14T02:47:52.518Z,96260.81
2022-11-14T02:50:20.107Z,96265.06
2022-11-14T02:52:49.142Z,96264.06
2022-11-14T02:55:16.904Z,96264.97
2022-11-14T02:57:44.416Z,96263.94
2022-11-14T03:00:15.088Z,96261.75
2022-11-14T03:02:42.982Z,96255.88
2022-11-14T03:05:10.744Z,96251.94
2022-11-14T03:07:38.335Z,96235.53
2022-11-14T03:10:09.522Z,96229.06
2022-11-14T03:12:37.184Z,96229.56
2022-11-14T03:15:05.906Z,96230.53
2022-11-14T03:17:33.834Z,96226.88
2022-11-14T03:20:01.596Z,96238.78
2022-11-14T03:22:29.299Z,96243.16
2022-11-14T03:24:56.815Z,96239.16
2022-11-14T03:27:25.686Z,96236.28
2022-11-14T03:29:53.186Z,96235.06
2022-11-14T03:32:20.741Z,96240.25
2022-11-14T03:34:48.260Z,96239.03
2022-11-14T03:37:15.866Z,96245.25
2022-11-14T03:39:43.398Z,96236.31
2022-11-14T03:42:10.927Z,96243.63
2022-11-14T03:44:40.055Z,96250.94
2022-11-14T03:47:07.585Z,96246.00
2022-11-14T03:49:35.135Z,96244.63
2022-11-14T03:52:02.668Z,96234.88
2022-11-14T03:54:30.222Z,96242.03
2022-11-14T03:56:57.768Z,96246.25
2022-11-14T03:59:25.297Z,96235.81
2022-11-14T04:01:54.183Z,96237.63
2022-11-14T04:04:21.694Z,96228.81
2022-11-14T04:06:49.308Z,96223.72
2022-11-14T04:09:16.976Z,96225.22
2022-11-14T04:11:44.713Z,96234.19
2022-11-14T04:14:12.322Z,96232.50
2022-11-14T04:16:39.831Z,96240.56
2022-11-14T04:19:08.753Z,96241.56
2022-11-14T04:21:36.260Z,96236.81
2022-11-14T04:24:08.414Z,96236.81
2022-11-14T04:26:38.408Z,96239.38
2022-11-14T04:29:05.915Z,96239.28
2022-11-14T04:31:33.430Z,96236.03
2022-11-14T04:34:01.002Z,96241.88
2022-11-14T04:36:29.856Z,96240.34
2022-11-14T04:38:57.600Z,96243.78
2022-11-14T04:41:25.127Z,96258.19
2022-11-14T04:43:52.647Z,96246.28
2022-11-14T04:46:20.177Z,96246.88
2022-11-14T04:48:47.660Z,96250.22
2022-11-14T04:51:15.182Z,96248.28
2022-11-14T04:53:44.059Z,96244.72
2022-11-14T04:56:11.610Z,96253.75
2022-11-14T04:58:39.582Z,96254.75
2022-11-14T05:01:10.414Z,96258.91
2022-11-14T05:03:38.346Z,96255.06
2022-11-14T05:06:06.268Z,96259.75
2022-11-14T05:08:33.807Z,96250.19
2022-11-14T05:11:02.781Z,96261.72
2022-11-14T05:13:30.338Z,96252.84
2022-11-14T05:15:59.702Z,96259.38
2022-11-14T05:18:27.670Z,96250.63
2022-11-14T05:20:59.196Z,96259.63
2022-11-14T05:23:26.812Z,96255.19
2022-11-14T05:26:02.894Z,96252.56
2022-11-14T05:28:30.862Z,96250.47
2022-11-14T05:31:02.661Z,96233.53
2022-11-14T05:33:30.624Z,96235.09
2022-11-14T05:36:02.330Z,96242.28
2022-11-14T05:38:30.147Z,96238.44
2022-11-14T05:40:57.736Z,96245.16
2022-11-14T05:43:29.878Z,96245.84
2022-11-14T05:46:00.404Z,96247.28
2022-11-14T05:48:28.319Z,96239.38
2022-11-14T05:50:56.507Z,96238.00
2022-11-14T05:53:24.106Z,96220.09
2022-11-14T05:55:51.643Z,96229.00
2022-11-14T05:58:19.202Z,96251.44
2022-11-14T06:00:53.936Z,96250.78
2022-11-14T06:03:21.982Z,96255.84
2022-11-14T06:05:49.507Z,96242.00
2022-11-14T06:08:17.026Z,96249.38
2022-11-14T06:10:44.533Z,96249.94
2022-11-14T06:13:12.053Z,96254.09
2022-11-14T06:15:39.570Z,96267.81
2022-11-14T06:18:08.504Z,96266.44
2022-11-14T06:20:37.512Z,96272.47
2022-11-14T06:23:05.066Z,96281.63
2022-11-14T06:25:32.614Z,96289.16
2022-11-14T06:28:00.398Z,96294.72
2022-11-14T06:30:27.919Z,96291.53
2022-11-14T06:32:58.000Z,96282.16
2022-11-14T06:35:26.908Z,96280.59
2022-11-14T06:37:54.806Z,96282.00
2022-11-14T06:40:22.342Z,96293.66
2022-11-14T06:42:49.879Z,96296.66
2022-11-14T06:45:17.720Z,96300.94
2022-11-14T06:47:45.275Z,96300.28
2022-11-14T06:50:12.782Z,96306.22
2022-11-14T06:52:41.627Z,96314.81
2022-11-14T06:55:09.384Z,96317.97
2022-11-14T06:57:36.891Z,96317.47
2022-11-14T07:00:05.175Z,96322.75
2022-11-14T07:02:32.662Z,96318.28
2022-11-14T07:05:00.183Z,96309.75
2022-11-14T07:07:28.843Z,96313.63
2022-11-14T07:09:58.771Z,96307.00
2022-11-14T07:12:26.278Z,96303.66
2022-11-14T07:14:53.796Z,96306.81
2022-11-14T07:17:21.313Z,96303.09
2022-11-14T07:19:48.838Z,96299.50
2022-11-14T07:22:16.449Z,96306.13
2022-11-14T07:24:43.945Z,96299.50
2022-11-14T07:27:12.753Z,96295.31
2022-11-14T07:29:40.259Z,96303.38
2022-11-14T07:32:07.841Z,96305.16
2022-11-14T07:34:35.347Z,96303.38
2022-11-14T07:37:02.916Z,96300.56
2022-11-14T07:39:30.451Z,96305.00
2022-11-14T07:41:57.963Z,96298.63
2022-11-14T07:44:26.796Z,96303.78
2022-11-14T07:46:54.296Z,96305.53
2022-11-14T07:49:21.786Z,96302.88
2022-11-14T07:51:49.327Z,96293.25
2022-11-14T07:54:16.821Z,96295.53
2022-11-14T07:56:44.349Z,96295.59
2022-11-14T07:59:11.930Z,96295.25
2022-11-14T08:01:41.075Z,96286.78
2022-11-14T08:04:08.588Z,96281.13
2022-11-14T08:06:36.108Z,96271.38
2022-11-14T08:09:03.662Z,96260.31
2022-11-14T08:11:49.303Z,96264.56
2022-11-14T08:14:17.364Z,96260.59
2022-11-14T08:16:46.238Z,96262.47
2022-11-14T08:19:13.806Z,96267.25
2022-11-14T08:21:41.316Z,96270.72
2022-11-14T08:24:09.682Z,96260.66
2022-11-14T08:26:37.228Z,96258.81
2022-11-14T08:29:04.761Z,96258.50
2022-11-14T08:31:32.287Z,96258.31
2022-11-14T08:34:01.130Z,96246.38
2022-11-14T08:36:28.690Z,96260.03
2022-11-14T08:39:01.611Z,96259.28
2022-11-14T08:41:29.670Z,96259.13
2022-11-14T08:43:57.271Z,96261.06
2022-11-14T08:46:24.824Z,96260.84
2022-11-14T08:48:52.319Z,96260.78
2022-11-14T08:51:21.168Z,96261.91
2022-11-14T08:53:48.669Z,96264.19
2022-11-14T08:56:16.182Z,96261.84
2022-11-14T08:58:43.680Z,96269.03
2022-11-14T09:01:11.770Z,96253.06
2022-11-14T09:03:39.497Z,96254.53
2022-11-14T09:06:07.429Z,96261.97
2022-11-14T09:08:36.285Z,96249.94
2022-11-14T09:11:09.223Z,96244.75
2022-11-14T09:13:37.560Z,96256.47
2022-11-14T09:16:05.462Z,96258.41
2022-11-14T09:18:33.356Z,96256.00
2022-11-14T09:21:02.249Z,96260.16
2022-11-14T09:23:30.180Z,96259.81
2022-11-14T09:25:59.864Z,96262.44
2022-11-14T09:28:27.413Z,96266.44
2022-11-14T09:30:54.933Z,96265.56
2022-11-14T09:33:22.451Z,96270.50
2022-11-14T09:35:49.961Z,96273.38
2022-11-14T09:38:17.474Z,96271.72
2022-11-14T09:40:55.640Z,96275.94
2022-11-14T09:43:39.503Z,96278.16
2022-11-14T09:46:17.419Z,96279.91
2022-11-14T09:48:45.029Z,96277.06
2022-11-14T09:51:17.673Z,96270.56
2022-11-14T09:53:53.205Z,96265.59
2022-11-14T09:56:24.522Z,96255.69
2022-11-14T09:58:55.505Z,96257.66
2022-11-14T10:01:33.206Z,96262.22
2022-11-14T10:04:11.113Z,96268.94
2022-11-14T10:06:47.731Z,96267.00
2022-11-14T10:09:44.998Z,96269.03
2022-11-14T10:12:16.289Z,96273.84
2022-11-14T10:15:12.529Z,96278.31
2022-11-14T10:17:58.369Z,96274.41
2022-11-14T10:20:34.007Z,96276.72
2022-11-14T10:23:14.639Z,96261.19
2022-11-14T10:25:55.399Z,96268.56
2022-11-14T10:28:44.795Z,96256.19
2022-11-14T10:31:23.921Z,96260.44
2022-11-14T10:33:58.697Z,96266.16
2022-11-14T10:36:41.921Z,96260.72
2022-11-14T10:39:17.395Z,96264.47
2022-11-14T10:42:06.158Z,96266.63
2022-11-14T10:44:39.600Z,96280.59
2022-11-14T10:47:13.920Z,96270.56
2022-11-14T10:49:41.768Z,96271.56
2022-11-14T10:52:15.930Z,96271.75
2022-11-14T10:54:48.964Z,96274.84
2022-11-14T10:57:18.857Z,96270.47
2022-11-14T10:59:47.253Z,96267.72
2022-11-14T11:02:16.830Z,96272.66
2022-11-14T11:04:46.168Z,96272.84
2022-11-14T11:07:41.862Z,96274.06
2022-11-14T11:10:38.781Z,96279.59
2022-11-14T11:13:06.694Z,96274.25
2022-11-14T11:15:41.688Z,96274.66
2022-11-14T11:18:26.813Z,96282.50
2022-11-14T11:21:05.650Z,96269.06
2022-11-14T11:23:33.535Z,96273.47
2022-11-14T11:26:05.646Z,96270.63
2022-11-14T11:28:34.477Z,96266.19
2022-11-14T11:31:03.546Z,96269.81
2022-11-14T11:33:34.433Z,96264.91
2022-11-14T11:36:05.468Z,96261.63
2022-11-14T11:38:34.878Z,96260.81
2022-11-14T11:41:15.451Z,96259.09
2022-11-14T11:43:58.175Z,96254.31
2022-11-14T11:46:34.019Z,96252.16
2022-11-14T11:49:12.021Z,96240.78
2022-11-14T11:51:46.768Z,96240.09
2022-11-14T11:54:17.409Z,96245.59
2022-11-14T11:56:47.252Z,96244.78
2022-11-14T11:59:26.834Z,96240.47
2022-11-14T12:01:54.543Z,96238.81
2022-11-14T12:04:23.451Z,96237.81
2022-11-14T12:06:56.811Z,96249.91
2022-11-14T12:10:03.214Z,96247.44
2022-11-14T12:12:26.473Z,96258.97
2022-11-14T12:15:09.009Z,96254.47
2022-11-14T12:18:05.686Z,96262.72
2022-11-14T12:21:09.250Z,96266.69
2022-11-14T12:24:12.630Z,96270.31
2022-11-14T12:27:01.688Z,96273.28
2022-11-14T12:29:47.546Z,96275.59
2022-11-14T12:32:20.105Z,96280.22
2022-11-14T12:34:49.123Z,96280.59
2022-11-14T12:37:20.009Z,96279.97
2022-11-14T12:39:58.142Z,96279.41
2022-11-14T12:42:27.264Z,96275.56
2022-11-14T12:44:54.893Z,96276.16
2022-11-14T12:47:23.918Z,96277.59
2022-11-14T12:50:42.097Z,96274.31
2022-11-14T12:53:42.067Z,96280.47
2022-11-14T12:56:46.861Z,96283.91
2022-11-14T12:59:35.899Z,96286.88
2022-11-14T13:02:26.713Z,96278.16
2022-11-14T13:05:24.186Z,96279.94
2022-11-14T13:08:05.258Z,96283.94
2022-11-14T13:10:38.399Z,96284.81
2022-11-14T13:13:25.960Z,96303.25
2022-11-14T13:16:14.167Z,96298.25
2022-11-14T13:19:11.263Z,96298.63
2022-11-14T13:21:48.092Z,96291.44
2022-11-14T13:24:17.126Z,96287.81
2022-11-14T13:26:46.907Z,96288.78
2022-11-14T13:29:58.044Z,96288.09
2022-11-14T13:33:01.939Z,96274.69
2022-11-14T13:35:43.408Z,96284.97
2022-11-14T13:39:03.536Z,96288.53
2022-11-14T13:42:07.329Z,96279.84
2022-11-14T13:45:10.048Z,96284.88
2022-11-14T13:48:00.014Z,96285.09
2022-11-14T13:50:32.293Z,96284.63
2022-11-14T13:53:01.275Z,96288.31
2022-11-14T13:55:38.942Z,96286.50
2022-11-14T13:58:19.655Z,96279.56
2022-11-14T14:01:07.875Z,96277.75
2022-11-14T14:03:48.242Z,96281.44
2022-11-14T14:06:36.641Z,96275.59
2022-11-14T14:09:20.370Z,96271.97
2022-11-14T14:11:59.387Z,96275.03
2022-11-14T14:14:43.198Z,96277.06
2022-11-14T14:17:16.138Z,96272.41
2022-11-14T14:20:00.687Z,96263.28
2022-11-14T14:22:36.266Z,96271.59
2022-11-14T14:25:15.927Z,96274.69
2022-11-14T14:27:57.454Z,96266.22
2022-11-14T14:30:25.473Z,96272.34
2022-11-14T14:33:12.491Z,96260.38
2022-11-14T14:35:41.140Z,96264.56
2022-11-14T14:38:13.606Z,96256.75
2022-11-14T14:40:43.380Z,96260.13
2022-11-14T14:43:23.069Z,96251.53
2022-11-14T14:45:54.728Z,96255.50
2022-11-14T14:48:25.833Z,96253.25
2022-11-14T14:50:55.160Z,96251.00
2022-11-14T14:53:24.829Z,96244.94
2022-11-14T14:55:55.856Z,96247.81
2022-11-14T14:58:26.958Z,96254.44
2022-11-14T15:00:57.073Z,96243.88
2022-11-14T15:03:26.823Z,96247.44
2022-11-14T15:06:01.655Z,96252.66
2022-11-14T15:08:30.987Z,96250.94
2022-11-14T15:11:01.644Z,96245.38
2022-11-14T15:13:32.076Z,96236.88
2022-11-14T15:15:59.888Z,96242.06
2022-11-14T15:18:29.826Z,96236.94
2022-11-14T15:21:18.010Z,96238.00
2022-11-14T15:23:45.791Z,96237.53
2022-11-14T15:26:17.911Z,96235.50
2022-11-14T15:28:46.217Z,96232.28
2022-11-14T15:31:19.794Z,96230.28
2022-11-14T15:34:00.758Z,96230.22
2022-11-14T15:36:28.303Z,96238.56
2022-11-14T15:39:01.278Z,96244.94
2022-11-14T15:41:31.381Z,96240.94
2022-11-14T15:44:02.861Z,96245.63
2022-11-14T15:46:44.355Z,96241.81
2022-11-14T15:49:21.470Z,96246.94
2022-11-14T15:51:52.744Z,96243.94
2022-11-14T15:54:25.949Z,96246.94
2022-11-14T15:56:56.892Z,96240.78
2022-11-14T15:59:25.257Z,96242.41
2022-11-14T16:01:55.984Z,96248.34
2022-11-14T16:04:29.800Z,96244.84
2022-11-14T16:06:57.402Z,96248.81
2022-11-14T16:09:25.059Z,96243.78
2022-11-14T16:11:52.595Z,96235.44
2022-11-14T16:14:21.450Z,96233.06
2022-11-14T16:16:48.978Z,96239.28
2022-11-14T16:19:17.870Z,96235.06
2022-11-14T16:21:45.673Z,96241.50
2022-11-14T16:24:17.893Z,96248.00
2022-11-14T16:26:45.498Z,96240.88
2022-11-14T16:29:13.038Z,96240.78
2022-11-14T16:31:42.241Z,96237.13
2022-11-14T16:34:14.968Z,96241.41
2022-11-14T16:36:45.133Z,96233.88
2022-11-14T16:39:13.594Z,96237.66
2022-11-14T16:41:41.271Z,96234.63
2022-11-14T16:44:14.805Z,96236.94
2022-11-14T16:46:43.781Z,96232.50
2022-11-14T16:49:15.046Z,96231.50
2022-11-14T16:51:48.509Z,96232.78
2022-11-14T16:54:17.511Z,96230.13
2022-11-14T16:56:45.019Z,96228.50
2022-11-14T16:59:12.826Z,96234.91
2022-11-14T17:01:40.486Z,96234.00
2022-11-14T17:04:09.443Z,96244.53
2022-11-14T17:06:36.979Z,96242.84
2022-11-14T17:09:04.748Z,96243.47
2022-11-14T17:11:32.329Z,96244.81
2022-11-14T17:13:59.820Z,96239.16
2022-11-14T17:16:27.328Z,96243.78
2022-11-14T17:18:55.473Z,96244.84
2022-11-14T17:21:26.323Z,96245.28
2022-11-14T17:23:57.045Z,96236.94
2022-11-14T17:26:25.119Z,96243.91
2022-11-14T17:28:53.064Z,96240.88
2022-11-14T17:31:20.858Z,96242.56
2022-11-14T17:33:52.451Z,96244.56
2022-11-14T17:36:20.151Z,96244.63
2022-11-14T17:38:49.027Z,96243.69
2022-11-14T17:41:16.612Z,96239.22
2022-11-14T17:43:44.461Z,96240.00
2022-11-14T17:46:15.856Z,96243.16
2022-11-14T17:48:43.724Z,96232.06
2022-11-14T17:51:13.576Z,96236.66
2022-11-14T17:53:44.601Z,96226.97
2022-11-14T17:56:15.887Z,96226.31
2022-11-14T17:58:44.279Z,96232.78
2022-11-14T18:01:12.636Z,96226.75
2022-11-14T18:03:40.285Z,96232.81
2022-11-14T18:06:09.334Z,96231.22
2022-11-14T18:08:37.395Z,96231.13
2022-11-14T18:11:06.924Z,96230.91
2022-11-14T18:13:36.008Z,96231.03
2022-11-14T18:16:05.547Z,96235.41
2022-11-14T18:18:34.285Z,96234.50
2022-11-14T18:21:07.366Z,96233.00
2022-11-14T18:23:36.179Z,96234.97
2022-11-14T18:26:10.037Z,96237.25
2022-11-14T18:28:38.910Z,96235.41
2022-11-14T18:31:08.311Z,96241.53
2022-11-14T18:33:36.415Z,96244.56
2022-11-14T18:36:05.931Z,96244.72
2022-11-14T18:38:33.962Z,96248.91
2022-11-14T18:41:04.099Z,96250.84
2022-11-14T18:43:33.216Z,96244.16
2022-11-14T18:46:07.612Z,96244.47
2022-11-14T18:48:35.765Z,96254.19
2022-11-14T18:51:04.459Z,96246.44
2022-11-14T18:53:33.200Z,96256.84
2022-11-14T18:56:04.428Z,96251.41
2022-11-14T18:58:32.046Z,96244.72
2022-11-14T19:00:59.689Z,96247.88
2022-11-14T19:03:29.558Z,96243.34
2022-11-14T19:06:02.425Z,96250.94
2022-11-14T19:08:29.998Z,96240.31
2022-11-14T19:11:01.650Z,96236.50
2022-11-14T19:13:29.538Z,96240.88
2022-11-14T19:16:02.258Z,96249.75
2022-11-14T19:18:32.495Z,96251.47
2022-11-14T19:21:01.396Z,96255.03
2022-11-14T19:23:29.866Z,96245.78
2022-11-14T19:25:59.809Z,96253.13
2022-11-14T19:28:27.707Z,96263.78
2022-11-14T19:30:55.229Z,96260.81
2022-11-14T19:33:22.741Z,96262.47
2022-11-14T19:35:51.635Z,96256.31
2022-11-14T19:38:19.170Z,96257.47
2022-11-14T19:40:50.818Z,96263.16
2022-11-14T19:43:18.737Z,96261.56
2022-11-14T19:45:46.436Z,96269.97
2022-11-14T19:48:14.045Z,96272.72
2022-11-14T19:50:41.554Z,96270.19
2022-11-14T19:53:10.513Z,96266.78
2022-11-14T19:55:38.060Z,96258.19
2022-11-14T19:58:05.563Z,96258.81
2022-11-14T20:00:33.128Z,96264.63
2022-11-14T20:03:00.681Z,96257.97
2022-11-14T20:05:28.194Z,96268.81
2022-11-14T20:07:55.716Z,96254.84
2022-11-14T20:10:24.588Z,96253.00
2022-11-14T20:12:52.111Z,96252.44
2022-11-14T20:15:19.645Z,96257.41
2022-11-14T20:17:47.150Z,96258.03
2022-11-14T20:20:14.760Z,96263.50
2022-11-14T20:22:42.300Z,96257.50
2022-11-14T20:25:10.108Z,96254.75
2022-11-14T20:27:39.074Z,96252.22
2022-11-14T20:30:07.762Z,96244.56
2022-11-14T20:32:35.285Z,96254.00
2022-11-14T20:35:02.834Z,96242.78
2022-11-14T20:37:30.372Z,96246.22
2022-11-14T20:39:57.920Z,96241.59
2022-11-14T20:42:25.433Z,96253.22
2022-11-14T20:44:54.267Z,96248.94
2022-11-14T20:47:22.534Z,96242.56
2022-11-14T20:49:50.273Z,96242.84
2022-11-14T20:52:18.651Z,96245.19
2022-11-14T20:54:46.201Z,96242.47
2022-11-14T20:57:13.840Z,96236.22
2022-11-14T20:59:41.390Z,96246.78
2022-11-14T21:02:12.599Z,96248.69
2022-11-14T21:04:40.203Z,96249.31
2022-11-14T21:07:07.864Z,96254.13
2022-11-14T21:09:35.417Z,96250.75
2022-11-14T21:12:02.939Z,96248.97
2022-11-14T21:14:30.458Z,96242.78
2022-11-14T21:16:58.200Z,96236.81
2022-11-14T21:19:28.989Z,96246.31
2022-11-14T21:21:56.510Z,96241.91
2022-11-14T21:24:24.067Z,96244.03
2022-11-14T21:26:51.663Z,96245.56
2022-11-14T21:29:19.197Z,96240.91
2022-11-14T21:31:47.575Z,96231.59
2022-11-14T21:34:17.895Z,96234.94
2022-11-14T21:36:48.094Z,96234.47
2022-11-14T21:39:17.464Z,96241.63
2022-11-14T21:41:48.156Z,96223.78
2022-11-14T21:44:17.660Z,96226.94
2022-11-14T21:46:47.012Z,96227.06
2022-11-14T21:49:14.854Z,96233.47
2022-11-14T21:51:42.456Z,96228.84
2022-11-14T21:54:11.373Z,96229.72
2022-11-14T21:56:38.957Z,96221.03
2022-11-14T21:59:14.450Z,96225.63
2022-11-14T22:02:01.473Z,96225.22
2022-11-14T22:04:29.301Z,96223.72
2022-11-14T22:06:57.056Z,96227.97
2022-11-14T22:09:27.868Z,96225.50
2022-11-14T22:11:55.686Z,96221.06
2022-11-14T22:14:23.236Z,96221.97
2022-11-14T22:16:50.746Z,96230.00
2022-11-14T22:19:18.749Z,96226.81
2022-11-14T22:21:46.517Z,96226.97
2022-11-14T22:24:14.052Z,96222.13
2022-11-14T22:26:42.928Z,96220.16
2022-11-14T22:29:10.473Z,96228.94
2022-11-14T22:31:38.817Z,96224.75
2022-11-14T22:34:06.365Z,96230.88
2022-11-14T22:36:33.976Z,96230.75
2022-11-14T22:39:01.679Z,96221.72
2022-11-14T22:41:33.028Z,96225.63
2022-11-14T22:44:02.919Z,96244.25
2022-11-14T22:46:30.677Z,96240.34
2022-11-14T22:48:58.607Z,96230.66
2022-11-14T22:51:27.629Z,96231.06
2022-11-14T22:53:57.167Z,96231.88
2022-11-14T22:56:26.858Z,96237.56
2022-11-14T22:58:54.645Z,96233.41
2022-11-14T23:01:25.678Z,96240.53
2022-11-14T23:03:57.427Z,96239.25
2022-11-14T23:06:25.943Z,96235.38
2022-11-14T23:08:53.860Z,96238.44
2022-11-14T23:11:23.682Z,96240.38
2022-11-14T23:13:53.383Z,96228.44
2022-11-14T23:16:23.918Z,96236.06
2022-11-14T23:18:53.773Z,96231.22
2022-11-14T23:21:23.422Z,96222.88
2022-11-14T23:23:53.914Z,96227.34
2022-11-14T23:26:21.971Z,96232.19
2022-11-14T23:28:49.517Z,96225.66
2022-11-14T23:31:19.197Z,96220.94
2022-11-14T23:33:48.254Z,96225.38
2022-11-14T23:36:16.519Z,96229.81
2022-11-14T23:38:44.215Z,96228.00
2022-11-14T23:41:17.656Z,96218.88
2022-11-14T23:43:45.295Z,96217.91
2022-11-14T23:46:12.883Z,96220.94
2022-11-14T23:48:40.616Z,96212.34
2022-11-14T23:51:10.550Z,96218.31
2022-11-14T23:53:38.139Z,96222.44
2022-11-14T23:56:06.223Z,96221.47
2022-11-14T23:58:33.796Z,96211.34
